Time,TemperatureF,DewpointF,PressureIn,WindDirection,WindDirectionDegrees,WindSpeedMPH,WindSpeedGustMPH,Humidity,HourlyPrecipIn,Conditions,Clouds,dailyrainin,SoftwareType,DateUTC
2013-03-16 00:03:00,23.5,18.1,0.00,NE,46,11.6,-999.0,79,0.00,,,-99.99,,2013-03-16 08:03:00,
2013-03-16 00:08:00,23.6,18.2,0.00,NE,56,10.2,-999.0,79,0.00,,,-99.99,,2013-03-16 08:08:00,
2013-03-16 00:13:00,23.6,18.1,0.00,NE,51,8.4,-999.0,79,0.00,,,-99.99,,2013-03-16 08:13:00,
2013-03-16 00:18:00,23.9,18.3,0.00,NE,46,7.0,-999.0,78,0.00,,,-99.99,,2013-03-16 08:18:00,
2013-03-16 00:24:00,24.5,18.4,0.00,NE,41,6.9,-999.0,77,0.00,,,-99.99,,2013-03-16 08:24:00,
2013-03-16 00:29:00,24.7,18.4,0.00,NE,37,6.0,-999.0,76,0.00,,,-99.99,,2013-03-16 08:29:00,
2013-03-16 00:34:00,24.5,18.5,0.00,NE,37,5.0,-999.0,77,0.00,,,-99.99,,2013-03-16 08:34:00,
2013-03-16 00:39:00,24.4,18.4,0.00,NE,40,5.7,-999.0,77,0.00,,,-99.99,,2013-03-16 08:39:00,
2013-03-16 00:44:00,24.6,18.5,0.00,NE,43,7.2,-999.0,77,0.00,,,-99.99,,2013-03-16 08:44:00,
2013-03-16 00:49:00,24.3,18.5,0.00,NNE,27,5.7,-999.0,78,0.00,,,-99.99,,2013-03-16 08:49:00,
2013-03-16 00:54:00,24.4,18.4,0.00,NE,34,5.6,-999.0,77,0.00,,,-99.99,,2013-03-16 08:54:00,
2013-03-16 01:00:00,24.2,18.5,0.00,NE,36,5.3,-999.0,78,0.00,,,-99.99,,2013-03-16 09:00:00,
2013-03-16 01:04:00,24.2,18.4,0.00,NE,40,5.3,-999.0,78,0.00,,,-99.99,,2013-03-16 09:04:00,
2013-03-16 01:09:00,24.0,18.3,0.00,NE,42,3.8,-999.0,78,0.00,,,-99.99,,2013-03-16 09:09:00,
2013-03-16 01:14:00,24.0,18.3,0.00,NE,34,4.8,-999.0,78,0.00,,,-99.99,,2013-03-16 09:14:00,
2013-03-16 01:19:00,24.0,18.4,0.00,NNE,29,4.4,-999.0,78,0.00,,,-99.99,,2013-03-16 09:19:00,
2013-03-16 01:24:00,23.7,18.3,0.00,NE,40,3.6,-999.0,79,0.00,,,-99.99,,2013-03-16 09:24:00,
2013-03-16 01:29:00,24.0,18.4,0.00,NE,40,1.2,-999.0,78,0.00,,,-99.99,,2013-03-16 09:29:00,
2013-03-16 01:34:00,24.3,18.5,0.00,NNE,33,2.9,-999.0,78,0.00,,,-99.99,,2013-03-16 09:34:00,
2013-03-16 01:39:00,24.5,19.0,0.00,NNE,28,0.0,-999.0,79,0.00,,,-99.99,,2013-03-16 09:39:00,
2013-03-16 01:44:00,24.7,19.1,0.00,North,5,1.0,-999.0,78,0.00,,,-99.99,,2013-03-16 09:44:00,
2013-03-16 01:49:00,24.7,19.0,0.00,North,349,1.5,-999.0,78,0.00,,,-99.99,,2013-03-16 09:49:00,
2013-03-16 01:54:00,24.3,18.6,0.00,North,349,0.0,-999.0,78,0.00,,,-99.99,,2013-03-16 09:54:00,
2013-03-16 02:00:00,24.2,18.6,0.00,North,349,0.0,-999.0,79,0.00,,,-99.99,,2013-03-16 10:00:00,
2013-03-16 02:04:00,24.1,18.7,0.00,North,349,0.8,-999.0,79,0.00,,,-99.99,,2013-03-16 10:04:00,
2013-03-16 02:09:00,24.4,19.0,0.00,NNW,348,1.6,-999.0,79,0.00,,,-99.99,,2013-03-16 10:09:00,
2013-03-16 02:14:00,24.4,18.9,0.00,NNW,348,0.8,-999.0,79,0.00,,,-99.99,,2013-03-16 10:14:00,
2013-03-16 02:19:00,24.2,18.5,0.00,North,354,0.0,-999.0,78,0.00,,,-99.99,,2013-03-16 10:19:00,
2013-03-16 02:24:00,23.8,18.5,0.00,NNW,348,0.0,-999.0,80,0.00,,,-99.99,,2013-03-16 10:24:00,
2013-03-16 02:29:00,24.2,19.0,0.00,NNW,348,1.2,-999.0,80,0.00,,,-99.99,,2013-03-16 10:29:00,
2013-03-16 02:34:00,24.6,19.1,0.00,NNW,348,3.1,-999.0,79,0.00,,,-99.99,,2013-03-16 10:34:00,
2013-03-16 02:39:00,24.7,19.1,0.00,North,0,2.9,-999.0,79,0.00,,,-99.99,,2013-03-16 10:39:00,
2013-03-16 02:44:00,25.0,19.2,0.00,NNW,338,7.4,-999.0,78,0.00,,,-99.99,,2013-03-16 10:44:00,
2013-03-16 02:49:00,25.1,18.7,0.00,NNW,340,4.1,-999.0,76,0.00,,,-99.99,,2013-03-16 10:49:00,
2013-03-16 02:54:00,25.2,18.9,0.00,North,0,5.6,-999.0,76,0.00,,,-99.99,,2013-03-16 10:54:00,
2013-03-16 03:00:00,25.1,18.9,0.00,NNW,343,6.5,-999.0,77,0.00,,,-99.99,,2013-03-16 11:00:00,
2013-03-16 03:04:00,25.2,18.8,0.00,NNW,343,5.3,-999.0,76,0.00,,,-99.99,,2013-03-16 11:04:00,
2013-03-16 03:09:00,25.0,18.7,0.00,NNW,341,4.5,-999.0,76,0.00,,,-99.99,,2013-03-16 11:09:00,
2013-03-16 03:14:00,24.9,18.5,0.00,NNW,328,2.2,-999.0,76,0.00,,,-99.99,,2013-03-16 11:14:00,
2013-03-16 03:19:00,24.6,18.4,0.00,NNW,328,1.3,-999.0,77,0.00,,,-99.99,,2013-03-16 11:19:00,
2013-03-16 03:24:00,24.7,18.8,0.00,NNW,328,3.3,-999.0,78,0.00,,,-99.99,,2013-03-16 11:24:00,
2013-03-16 03:29:00,24.7,18.8,0.00,NW,309,1.5,-999.0,78,0.00,,,-99.99,,2013-03-16 11:29:00,
2013-03-16 03:34:00,25.0,19.0,0.00,NW,315,4.2,-999.0,77,0.00,,,-99.99,,2013-03-16 11:34:00,
2013-03-16 03:39:00,25.3,19.0,0.00,NNW,335,5.9,-999.0,76,0.00,,,-99.99,,2013-03-16 11:39:00,
2013-03-16 03:44:00,24.3,18.9,0.00,West,277,2.6,-999.0,79,0.00,,,-99.99,,2013-03-16 11:44:00,
2013-03-16 03:49:00,24.5,19.1,0.00,WNW,290,2.7,-999.0,79,0.00,,,-99.99,,2013-03-16 11:49:00,
2013-03-16 03:54:00,24.1,19.1,0.00,WNW,292,2.0,-999.0,81,0.00,,,-99.99,,2013-03-16 11:54:00,
2013-03-16 04:00:00,24.2,18.9,0.00,WNW,300,2.6,-999.0,80,0.00,,,-99.99,,2013-03-16 12:00:00,
2013-03-16 04:04:00,25.0,18.8,0.00,NW,314,4.7,-999.0,77,0.00,,,-99.99,,2013-03-16 12:04:00,
2013-03-16 04:09:00,25.0,19.1,0.00,NW,308,4.8,-999.0,78,0.00,,,-99.99,,2013-03-16 12:09:00,
2013-03-16 04:14:00,24.9,18.8,0.00,NW,314,3.5,-999.0,77,0.00,,,-99.99,,2013-03-16 12:14:00,
2013-03-16 04:19:00,24.9,19.3,0.00,NNW,329,3.6,-999.0,78,0.00,,,-99.99,,2013-03-16 12:19:00,
2013-03-16 04:24:00,24.7,18.8,0.00,North,5,4.1,-999.0,77,0.00,,,-99.99,,2013-03-16 12:24:00,
2013-03-16 04:29:00,25.0,18.9,0.00,North,354,6.7,-999.0,77,0.00,,,-99.99,,2013-03-16 12:29:00,
2013-03-16 04:34:00,24.9,18.8,0.00,NNW,339,5.7,-999.0,77,0.00,,,-99.99,,2013-03-16 12:34:00,
2013-03-16 04:39:00,23.7,19.0,0.00,NW,312,3.6,-999.0,82,0.00,,,-99.99,,2013-03-16 12:39:00,
2013-03-16 04:44:00,23.6,19.9,0.00,NW,312,1.2,-999.0,85,0.00,,,-99.99,,2013-03-16 12:44:00,
2013-03-16 04:49:00,23.6,19.8,0.00,NW,312,3.4,-999.0,85,0.00,,,-99.99,,2013-03-16 12:49:00,
2013-03-16 04:54:00,23.6,19.7,0.00,NW,317,3.4,-999.0,85,0.00,,,-99.99,,2013-03-16 12:54:00,
2013-03-16 05:00:00,23.5,20.1,0.00,NW,320,4.3,-999.0,87,0.00,,,-99.99,,2013-03-16 13:00:00,
2013-03-16 05:04:00,23.3,20.0,0.00,NNW,334,3.5,-999.0,87,0.00,,,-99.99,,2013-03-16 13:04:00,
2013-03-16 05:09:00,23.6,19.9,0.00,NNW,335,2.1,-999.0,85,0.00,,,-99.99,,2013-03-16 13:09:00,
2013-03-16 05:14:00,23.8,19.4,0.00,NW,318,2.3,-999.0,83,0.00,,,-99.99,,2013-03-16 13:14:00,
2013-03-16 05:19:00,24.3,19.3,0.00,NNW,348,8.2,-999.0,81,0.00,,,-99.99,,2013-03-16 13:19:00,
2013-03-16 05:24:00,25.2,19.2,0.00,NNW,341,10.4,-999.0,77,0.00,,,-99.99,,2013-03-16 13:24:00,
2013-03-16 05:29:00,24.4,18.7,0.00,NNW,347,6.6,-999.0,78,0.00,,,-99.99,,2013-03-16 13:29:00,
2013-03-16 05:34:00,24.4,18.5,0.00,NNW,343,7.8,-999.0,78,0.00,,,-99.99,,2013-03-16 13:34:00,
2013-03-16 05:39:00,24.1,18.1,0.00,NNW,346,6.7,-999.0,77,0.00,,,-99.99,,2013-03-16 13:39:00,
2013-03-16 05:44:00,23.9,18.2,0.00,NNW,335,4.6,-999.0,78,0.00,,,-99.99,,2013-03-16 13:44:00,
2013-03-16 05:49:00,24.7,18.8,0.00,NNW,346,8.8,-999.0,78,0.00,,,-99.99,,2013-03-16 13:49:00,
2013-03-16 05:54:00,24.8,18.8,0.00,NNW,347,8.9,-999.0,77,0.00,,,-99.99,,2013-03-16 13:54:00,
2013-03-16 06:00:00,24.7,18.8,0.00,NNW,343,9.2,-999.0,78,0.00,,,-99.99,,2013-03-16 14:00:00,
2013-03-16 06:04:00,24.9,19.1,0.00,NNW,335,9.7,-999.0,78,0.00,,,-99.99,,2013-03-16 14:04:00,
2013-03-16 06:09:00,25.0,19.4,0.00,NNW,336,10.0,-999.0,79,0.00,,,-99.99,,2013-03-16 14:09:00,
2013-03-16 06:14:00,25.2,19.7,0.00,NNW,343,10.5,-999.0,79,0.00,,,-99.99,,2013-03-16 14:14:00,
2013-03-16 06:19:00,25.3,19.7,0.00,NNW,336,9.3,-999.0,79,0.00,,,-99.99,,2013-03-16 14:19:00,
2013-03-16 06:24:00,25.2,19.7,0.00,NNW,341,9.9,-999.0,79,0.00,,,-99.99,,2013-03-16 14:24:00,
2013-03-16 06:29:00,25.2,19.8,0.00,North,349,9.7,-999.0,80,0.00,,,-99.99,,2013-03-16 14:29:00,
2013-03-16 06:34:00,25.4,20.1,0.00,North,349,8.8,-999.0,80,0.00,,,-99.99,,2013-03-16 14:34:00,
2013-03-16 06:39:00,25.2,19.6,0.00,NNW,346,7.3,-999.0,79,0.00,,,-99.99,,2013-03-16 14:39:00,
2013-03-16 06:44:00,25.0,19.8,0.00,NNW,345,7.5,-999.0,80,0.00,,,-99.99,,2013-03-16 14:44:00,
2013-03-16 06:49:00,25.2,20.1,0.00,NNW,348,7.6,-999.0,80,0.00,,,-99.99,,2013-03-16 14:49:00,
2013-03-16 06:54:00,25.3,20.3,0.00,NNW,346,6.8,-999.0,81,0.00,,,-99.99,,2013-03-16 14:54:00,
2013-03-16 07:00:00,25.6,20.5,0.00,NNW,343,5.7,-999.0,81,0.00,,,-99.99,,2013-03-16 15:00:00,
2013-03-16 07:04:00,25.5,20.5,0.00,NNW,342,6.2,-999.0,81,0.00,,,-99.99,,2013-03-16 15:04:00,
2013-03-16 07:09:00,25.5,20.6,0.00,NNW,337,6.4,-999.0,81,0.00,,,-99.99,,2013-03-16 15:09:00,
2013-03-16 07:14:00,25.5,20.7,0.00,NNW,336,6.9,-999.0,81,0.00,,,-99.99,,2013-03-16 15:14:00,
2013-03-16 07:19:00,25.5,20.8,0.00,NNW,338,8.7,-999.0,82,0.00,,,-99.99,,2013-03-16 15:19:00,
2013-03-16 07:24:00,25.4,20.6,0.00,North,349,8.7,-999.0,81,0.00,,,-99.99,,2013-03-16 15:24:00,
2013-03-16 07:29:00,25.3,20.5,0.00,North,353,8.6,-999.0,81,0.00,,,-99.99,,2013-03-16 15:29:00,
2013-03-16 07:34:00,25.4,20.6,0.00,NNW,344,9.0,-999.0,81,0.00,,,-99.99,,2013-03-16 15:34:00,
2013-03-16 07:39:00,25.4,20.8,0.00,NNW,337,9.3,-999.0,82,0.00,,,-99.99,,2013-03-16 15:39:00,
2013-03-16 07:44:00,25.3,20.6,0.00,NNW,328,6.8,-999.0,82,0.00,,,-99.99,,2013-03-16 15:44:00,
2013-03-16 07:49:00,25.2,20.5,0.00,NW,324,7.3,-999.0,82,0.00,,,-99.99,,2013-03-16 15:49:00,
2013-03-16 07:54:00,25.5,20.9,0.00,NNW,332,7.2,-999.0,82,0.00,,,-99.99,,2013-03-16 15:54:00,
2013-03-16 08:00:00,25.3,20.7,0.00,NNW,343,5.7,-999.0,82,0.00,,,-99.99,,2013-03-16 16:00:00,
2013-03-16 08:04:00,25.4,20.8,0.00,NNW,342,6.0,-999.0,82,0.00,,,-99.99,,2013-03-16 16:04:00,
2013-03-16 08:09:00,25.3,20.6,0.00,NNW,347,5.3,-999.0,82,0.00,,,-99.99,,2013-03-16 16:09:00,
2013-03-16 08:14:00,25.1,20.4,0.00,NNW,340,5.7,-999.0,82,0.00,,,-99.99,,2013-03-16 16:14:00,
2013-03-16 08:19:00,25.2,20.4,0.00,NNW,333,6.6,-999.0,81,0.00,,,-99.99,,2013-03-16 16:19:00,
2013-03-16 08:24:00,25.1,20.2,0.00,NW,323,7.3,-999.0,81,0.00,,,-99.99,,2013-03-16 16:24:00,
2013-03-16 08:29:00,24.8,19.9,0.00,NW,320,7.1,-999.0,81,0.00,,,-99.99,,2013-03-16 16:29:00,
2013-03-16 08:34:00,24.9,19.9,0.00,NW,320,7.8,-999.0,81,0.00,,,-99.99,,2013-03-16 16:34:00,
2013-03-16 08:39:00,25.0,20.3,0.00,NW,326,9.1,-999.0,82,0.00,,,-99.99,,2013-03-16 16:39:00,
2013-03-16 08:44:00,25.0,20.1,0.00,NNW,329,9.4,-999.0,81,0.00,,,-99.99,,2013-03-16 16:44:00,
2013-03-16 08:49:00,25.3,20.7,0.00,NNW,330,9.5,-999.0,82,0.00,,,-99.99,,2013-03-16 16:49:00,
2013-03-16 08:54:00,25.2,20.5,0.00,NNW,335,8.4,-999.0,82,0.00,,,-99.99,,2013-03-16 16:54:00,
2013-03-16 09:00:00,25.5,21.0,0.00,NNW,339,8.6,-999.0,83,0.00,,,-99.99,,2013-03-16 17:00:00,
2013-03-16 09:04:00,25.5,21.1,0.00,NNW,342,8.8,-999.0,83,0.00,,,-99.99,,2013-03-16 17:04:00,
2013-03-16 09:09:00,25.5,21.0,0.00,NNW,335,7.9,-999.0,82,0.00,,,-99.99,,2013-03-16 17:09:00,
2013-03-16 09:14:00,25.2,20.4,0.00,NNW,332,7.2,-999.0,81,0.00,,,-99.99,,2013-03-16 17:14:00,
2013-03-16 09:19:00,25.4,20.7,0.00,NNW,334,7.1,-999.0,82,0.00,,,-99.99,,2013-03-16 17:19:00,
2013-03-16 09:24:00,25.3,20.7,0.00,NNW,337,7.0,-999.0,82,0.00,,,-99.99,,2013-03-16 17:24:00,
2013-03-16 09:29:00,25.4,21.1,0.00,NNW,328,7.5,-999.0,83,0.00,,,-99.99,,2013-03-16 17:29:00,
2013-03-16 09:34:00,25.5,21.3,0.00,NNW,340,7.5,-999.0,84,0.00,,,-99.99,,2013-03-16 17:34:00,
2013-03-16 09:39:00,25.5,21.3,0.00,NNW,336,7.3,-999.0,83,0.00,,,-99.99,,2013-03-16 17:39:00,
2013-03-16 09:44:00,25.6,21.5,0.00,NNW,330,7.3,-999.0,84,0.00,,,-99.99,,2013-03-16 17:44:00,
2013-03-16 09:49:00,25.8,21.8,0.00,NW,326,9.0,-999.0,84,0.00,,,-99.99,,2013-03-16 17:49:00,
2013-03-16 09:54:00,25.7,21.5,0.00,NW,322,9.8,-999.0,83,0.00,,,-99.99,,2013-03-16 17:54:00,
2013-03-16 10:00:00,25.6,21.5,0.00,NNW,330,9.1,-999.0,84,0.00,,,-99.99,,2013-03-16 18:00:00,
2013-03-16 10:04:00,25.6,21.6,0.00,NW,324,9.3,-999.0,84,0.00,,,-99.99,,2013-03-16 18:04:00,
2013-03-16 10:09:00,25.7,21.6,0.00,NW,322,9.3,-999.0,84,0.00,,,-99.99,,2013-03-16 18:09:00,
2013-03-16 10:14:00,25.8,21.6,0.00,NNW,336,8.0,-999.0,84,0.00,,,-99.99,,2013-03-16 18:14:00,
2013-03-16 10:19:00,25.8,21.5,0.00,NNW,339,7.9,-999.0,83,0.00,,,-99.99,,2013-03-16 18:19:00,
2013-03-16 10:24:00,25.7,21.5,0.00,NNW,327,8.4,-999.0,84,0.00,,,-99.99,,2013-03-16 18:24:00,
2013-03-16 10:29:00,25.9,21.8,0.00,NW,325,7.9,-999.0,84,0.00,,,-99.99,,2013-03-16 18:29:00,
2013-03-16 10:34:00,25.8,21.4,0.00,NW,317,7.3,-999.0,83,0.00,,,-99.99,,2013-03-16 18:34:00,
2013-03-16 10:39:00,26.0,21.4,0.00,NW,305,7.2,-999.0,82,0.00,,,-99.99,,2013-03-16 18:39:00,
2013-03-16 10:44:00,26.2,21.4,0.00,NW,312,7.9,-999.0,82,0.00,,,-99.99,,2013-03-16 18:44:00,
2013-03-16 10:49:00,26.4,21.7,0.00,NW,320,6.8,-999.0,82,0.00,,,-99.99,,2013-03-16 18:49:00,
2013-03-16 10:54:00,26.0,21.1,0.00,NW,321,6.3,-999.0,81,0.00,,,-99.99,,2013-03-16 18:54:00,
2013-03-16 11:00:00,26.3,21.5,0.00,NW,318,7.8,-999.0,82,0.00,,,-99.99,,2013-03-16 19:00:00,
2013-03-16 11:04:00,26.3,21.6,0.00,NW,323,7.3,-999.0,82,0.00,,,-99.99,,2013-03-16 19:04:00,
2013-03-16 11:09:00,26.4,21.7,0.00,NNW,332,7.2,-999.0,82,0.00,,,-99.99,,2013-03-16 19:09:00,
2013-03-16 11:14:00,26.4,21.7,0.00,NNW,344,7.3,-999.0,82,0.00,,,-99.99,,2013-03-16 19:14:00,
2013-03-16 11:19:00,26.4,21.8,0.00,NNW,339,6.5,-999.0,82,0.00,,,-99.99,,2013-03-16 19:19:00,
2013-03-16 11:24:00,26.7,21.8,0.00,NNW,337,6.9,-999.0,81,0.00,,,-99.99,,2013-03-16 19:24:00,
2013-03-16 11:29:00,26.9,21.9,0.00,NNW,327,6.2,-999.0,81,0.00,,,-99.99,,2013-03-16 19:29:00,
2013-03-16 11:34:00,27.0,22.2,0.00,WNW,295,5.1,-999.0,82,0.00,,,-99.99,,2013-03-16 19:34:00,
2013-03-16 11:39:00,26.9,21.6,0.00,NNW,330,2.8,-999.0,80,0.00,,,-99.99,,2013-03-16 19:39:00,
2013-03-16 11:44:00,27.5,21.6,0.00,NW,312,0.0,-999.0,78,0.00,,,-99.99,,2013-03-16 19:44:00,
2013-03-16 11:49:00,29.1,21.8,0.00,NW,324,1.5,-999.0,74,0.00,,,-99.99,,2013-03-16 19:49:00,
2013-03-16 11:54:00,29.4,21.5,0.00,NW,324,0.0,-999.0,72,0.00,,,-99.99,,2013-03-16 19:54:00,
2013-03-16 12:00:00,30.7,22.0,0.00,NW,324,0.0,-999.0,69,0.00,,,-99.99,,2013-03-16 20:00:00,
2013-03-16 12:06:00,30.3,21.7,0.00,NW,324,0.0,-999.0,70,0.00,,,-99.99,,2013-03-16 20:06:00,
2013-03-16 12:11:00,30.0,20.2,0.00,East,88,2.2,-999.0,66,0.00,,,-99.99,,2013-03-16 20:11:00,
2013-03-16 12:16:00,29.1,20.5,0.00,SE,143,1.3,-999.0,69,0.00,,,-99.99,,2013-03-16 20:16:00,
2013-03-16 12:21:00,29.0,21.8,0.00,SSE,154,2.4,-999.0,74,0.00,,,-99.99,,2013-03-16 20:21:00,
2013-03-16 12:26:00,29.0,21.3,0.00,SSE,168,0.9,-999.0,72,0.00,,,-99.99,,2013-03-16 20:26:00,
2013-03-16 12:32:00,29.0,22.0,0.00,West,268,0.6,-999.0,74,0.00,,,-99.99,,2013-03-16 20:32:00,
2013-03-16 12:37:00,29.8,22.5,0.00,WNW,291,0.0,-999.0,74,0.00,,,-99.99,,2013-03-16 20:37:00,
2013-03-16 12:42:00,31.3,23.6,0.00,WNW,291,0.0,-999.0,72,0.00,,,-99.99,,2013-03-16 20:42:00,
2013-03-16 12:47:00,31.5,23.0,0.00,WNW,291,0.0,-999.0,70,0.00,,,-99.99,,2013-03-16 20:47:00,
2013-03-16 12:52:00,32.4,23.3,0.00,WNW,291,0.0,-999.0,68,0.00,,,-99.99,,2013-03-16 20:52:00,
2013-03-16 12:57:00,31.1,20.3,0.00,SSE,159,1.9,-999.0,64,0.00,,,-99.99,,2013-03-16 20:57:00,
2013-03-16 13:02:00,30.5,20.5,0.00,ESE,113,1.1,-999.0,66,0.00,,,-99.99,,2013-03-16 21:02:00,
2013-03-16 13:07:00,30.9,20.5,0.00,SE,128,1.2,-999.0,65,0.00,,,-99.99,,2013-03-16 21:07:00,
2013-03-16 13:12:00,31.8,19.8,0.00,ESE,117,0.8,-999.0,61,0.00,,,-99.99,,2013-03-16 21:12:00,
2013-03-16 13:18:00,33.4,20.1,0.00,ESE,117,0.0,-999.0,57,0.00,,,-99.99,,2013-03-16 21:18:00,
2013-03-16 13:23:00,32.4,20.3,0.00,SE,134,1.0,-999.0,60,0.00,,,-99.99,,2013-03-16 21:23:00,
2013-03-16 13:28:00,33.5,21.1,0.00,SE,134,0.8,-999.0,60,0.00,,,-99.99,,2013-03-16 21:28:00,
2013-03-16 13:33:00,33.9,21.0,0.00,SE,131,0.0,-999.0,58,0.00,,,-99.99,,2013-03-16 21:33:00,
2013-03-16 13:38:00,31.8,18.1,0.00,NE,56,4.7,-999.0,56,0.00,,,-99.99,,2013-03-16 21:38:00,
2013-03-16 13:43:00,29.8,17.7,0.00,NE,42,3.9,-999.0,60,0.00,,,-99.99,,2013-03-16 21:43:00,
2013-03-16 13:48:00,30.5,17.7,0.00,ENE,62,1.7,-999.0,58,0.00,,,-99.99,,2013-03-16 21:48:00,
2013-03-16 13:53:00,29.7,18.1,0.00,ENE,70,6.0,-999.0,61,0.00,,,-99.99,,2013-03-16 21:53:00,
2013-03-16 13:58:00,29.8,18.0,0.00,ENE,68,4.9,-999.0,61,0.00,,,-99.99,,2013-03-16 21:58:00,
2013-03-16 14:03:00,29.4,18.5,0.00,East,83,7.5,-999.0,63,0.00,,,-99.99,,2013-03-16 22:03:00,
2013-03-16 14:08:00,29.6,19.2,0.00,East,91,7.8,-999.0,64,0.00,,,-99.99,,2013-03-16 22:08:00,
2013-03-16 14:13:00,29.7,20.0,0.00,ENE,75,6.4,-999.0,66,0.00,,,-99.99,,2013-03-16 22:13:00,
2013-03-16 14:18:00,30.0,19.7,0.00,ESE,103,4.9,-999.0,65,0.00,,,-99.99,,2013-03-16 22:18:00,
2013-03-16 14:23:00,29.5,19.6,0.00,ENE,75,7.8,-999.0,66,0.00,,,-99.99,,2013-03-16 22:23:00,
2013-03-16 14:28:00,29.5,20.5,0.00,ENE,72,6.4,-999.0,68,0.00,,,-99.99,,2013-03-16 22:28:00,
2013-03-16 14:33:00,29.6,20.2,0.00,East,87,5.3,-999.0,67,0.00,,,-99.99,,2013-03-16 22:33:00,
2013-03-16 14:38:00,30.5,20.7,0.00,SE,126,2.8,-999.0,66,0.00,,,-99.99,,2013-03-16 22:38:00,
2013-03-16 14:43:00,30.3,20.1,0.00,SE,128,4.7,-999.0,65,0.00,,,-99.99,,2013-03-16 22:43:00,
2013-03-16 14:48:00,30.5,20.5,0.00,East,97,5.3,-999.0,66,0.00,,,-99.99,,2013-03-16 22:48:00,
2013-03-16 14:53:00,30.6,20.4,0.00,ESE,113,2.0,-999.0,65,0.00,,,-99.99,,2013-03-16 22:53:00,
2013-03-16 14:58:00,30.1,19.8,0.00,East,83,5.7,-999.0,65,0.00,,,-99.99,,2013-03-16 22:58:00,
2013-03-16 15:03:00,30.1,19.9,0.00,ENE,69,5.0,-999.0,65,0.00,,,-99.99,,2013-03-16 23:03:00,
2013-03-16 15:08:00,29.6,19.9,0.00,East,81,8.2,-999.0,66,0.00,,,-99.99,,2013-03-16 23:08:00,
2013-03-16 15:13:00,29.8,19.7,0.00,ENE,75,7.1,-999.0,65,0.00,,,-99.99,,2013-03-16 23:13:00,
2013-03-16 15:18:00,29.8,19.8,0.00,ENE,77,8.7,-999.0,66,0.00,,,-99.99,,2013-03-16 23:18:00,
2013-03-16 15:23:00,29.9,20.0,0.00,East,79,7.5,-999.0,66,0.00,,,-99.99,,2013-03-16 23:23:00,
2013-03-16 15:28:00,29.9,19.8,0.00,East,86,8.6,-999.0,65,0.00,,,-99.99,,2013-03-16 23:28:00,
2013-03-16 15:33:00,30.2,20.2,0.00,East,91,5.9,-999.0,65,0.00,,,-99.99,,2013-03-16 23:33:00,
2013-03-16 15:38:00,29.9,19.2,0.00,ENE,61,7.8,-999.0,64,0.00,,,-99.99,,2013-03-16 23:38:00,
2013-03-16 15:43:00,30.1,19.2,0.00,East,81,11.4,-999.0,63,0.00,,,-99.99,,2013-03-16 23:43:00,
2013-03-16 15:48:00,30.0,19.4,0.00,East,88,8.0,-999.0,64,0.00,,,-99.99,,2013-03-16 23:48:00,
2013-03-16 15:53:00,29.7,19.4,0.00,ENE,60,8.4,-999.0,65,0.00,,,-99.99,,2013-03-16 23:53:00,
2013-03-16 15:58:00,29.3,19.5,0.00,East,95,6.3,-999.0,66,0.00,,,-99.99,,2013-03-16 23:58:00,
2013-03-16 16:03:00,29.5,18.4,0.00,ESE,123,7.8,-999.0,63,0.00,,,-99.99,,2013-03-17 00:03:00,
2013-03-16 16:08:00,29.5,19.9,0.00,East,89,11.1,-999.0,67,0.00,,,-99.99,,2013-03-17 00:08:00,
2013-03-16 16:13:00,29.3,19.4,0.00,East,97,6.3,-999.0,65,0.00,,,-99.99,,2013-03-17 00:13:00,
2013-03-16 16:18:00,29.5,20.1,0.00,East,90,3.9,-999.0,67,0.00,,,-99.99,,2013-03-17 00:18:00,
2013-03-16 16:23:00,29.6,19.7,0.00,ESE,103,4.0,-999.0,66,0.00,,,-99.99,,2013-03-17 00:23:00,
2013-03-16 16:28:00,29.7,19.9,0.00,SE,141,7.2,-999.0,66,0.00,,,-99.99,,2013-03-17 00:28:00,
2013-03-16 16:33:00,29.8,20.1,0.00,ESE,116,1.9,-999.0,66,0.00,,,-99.99,,2013-03-17 00:33:00,
2013-03-16 16:38:00,29.7,20.0,0.00,SE,144,5.4,-999.0,66,0.00,,,-99.99,,2013-03-17 00:38:00,
2013-03-16 16:43:00,29.6,20.3,0.00,ESE,119,2.9,-999.0,67,0.00,,,-99.99,,2013-03-17 00:43:00,
2013-03-16 16:48:00,29.6,20.4,0.00,SSE,154,5.4,-999.0,68,0.00,,,-99.99,,2013-03-17 00:48:00,
2013-03-16 16:53:00,29.6,20.7,0.00,SE,128,6.2,-999.0,69,0.00,,,-99.99,,2013-03-17 00:53:00,
2013-03-16 16:58:00,29.6,20.5,0.00,SE,134,2.8,-999.0,68,0.00,,,-99.99,,2013-03-17 00:58:00,
2013-03-16 17:04:00,29.8,21.5,0.00,SE,136,3.0,-999.0,71,0.00,,,-99.99,,2013-03-17 01:04:00,
2013-03-16 17:08:00,29.5,21.3,0.00,East,97,4.6,-999.0,71,0.00,,,-99.99,,2013-03-17 01:08:00,
2013-03-16 17:14:00,29.3,20.9,0.00,ESE,110,3.2,-999.0,70,0.00,,,-99.99,,2013-03-17 01:14:00,
2013-03-16 17:19:00,29.0,21.4,0.00,ESE,120,6.5,-999.0,73,0.00,,,-99.99,,2013-03-17 01:19:00,
2013-03-16 17:25:00,28.9,21.3,0.00,SE,125,4.2,-999.0,72,0.00,,,-99.99,,2013-03-17 01:25:00,
2013-03-16 17:30:00,28.5,21.8,0.00,East,79,10.3,-999.0,75,0.00,,,-99.99,,2013-03-17 01:30:00,
2013-03-16 17:35:00,28.2,21.8,0.00,ESE,116,9.9,-999.0,76,0.00,,,-99.99,,2013-03-17 01:35:00,
2013-03-16 17:40:00,28.1,21.7,0.00,East,100,10.1,-999.0,76,0.00,,,-99.99,,2013-03-17 01:40:00,
2013-03-16 17:45:00,27.9,22.1,0.00,SE,127,8.8,-999.0,78,0.00,,,-99.99,,2013-03-17 01:45:00,
2013-03-16 17:50:00,27.7,22.2,0.00,ESE,123,11.1,-999.0,79,0.00,,,-99.99,,2013-03-17 01:50:00,
2013-03-16 17:55:00,27.8,22.5,0.00,East,89,6.1,-999.0,80,0.00,,,-99.99,,2013-03-17 01:55:00,
2013-03-16 18:00:00,27.6,22.2,0.00,ESE,111,4.0,-999.0,80,0.00,,,-99.99,,2013-03-17 02:00:00,
2013-03-16 18:06:00,27.7,22.6,0.00,East,96,4.6,-999.0,80,0.00,,,-99.99,,2013-03-17 02:06:00,
2013-03-16 18:11:00,27.4,22.9,0.00,ESE,122,4.2,-999.0,83,0.00,,,-99.99,,2013-03-17 02:11:00,
2013-03-16 18:16:00,27.5,22.8,0.00,SE,127,4.8,-999.0,82,0.00,,,-99.99,,2013-03-17 02:16:00,
2013-03-16 18:22:00,27.5,22.7,0.00,SSE,147,6.5,-999.0,82,0.00,,,-99.99,,2013-03-17 02:22:00,
2013-03-16 18:27:00,27.5,22.6,0.00,ESE,122,6.0,-999.0,81,0.00,,,-99.99,,2013-03-17 02:27:00,
2013-03-16 18:32:00,27.8,22.3,0.00,East,101,3.1,-999.0,79,0.00,,,-99.99,,2013-03-17 02:32:00,
2013-03-16 18:37:00,27.9,22.1,0.00,ENE,76,8.1,-999.0,78,0.00,,,-99.99,,2013-03-17 02:37:00,
2013-03-16 18:42:00,27.9,21.9,0.00,East,83,11.1,-999.0,77,0.00,,,-99.99,,2013-03-17 02:42:00,
2013-03-16 18:47:00,27.9,21.9,0.00,ENE,74,11.3,-999.0,77,0.00,,,-99.99,,2013-03-17 02:47:00,
2013-03-16 18:52:00,27.9,22.1,0.00,ENE,72,9.5,-999.0,78,0.00,,,-99.99,,2013-03-17 02:52:00,
2013-03-16 18:57:00,27.8,22.4,0.00,East,97,6.4,-999.0,79,0.00,,,-99.99,,2013-03-17 02:57:00,
2013-03-16 19:02:00,27.8,22.5,0.00,East,98,8.9,-999.0,80,0.00,,,-99.99,,2013-03-17 03:02:00,
2013-03-16 19:07:00,27.9,22.6,0.00,East,82,10.6,-999.0,80,0.00,,,-99.99,,2013-03-17 03:07:00,
2013-03-16 19:12:00,27.7,22.7,0.00,ESE,106,7.4,-999.0,81,0.00,,,-99.99,,2013-03-17 03:12:00,
2013-03-16 19:17:00,27.7,22.4,0.00,ESE,123,7.8,-999.0,80,0.00,,,-99.99,,2013-03-17 03:17:00,
2013-03-16 19:22:00,27.6,22.5,0.00,East,97,13.1,-999.0,80,0.00,,,-99.99,,2013-03-17 03:22:00,
2013-03-16 19:28:00,27.4,22.4,0.00,ESE,114,7.9,-999.0,81,0.00,,,-99.99,,2013-03-17 03:28:00,
2013-03-16 19:33:00,27.5,21.9,0.00,ENE,66,9.2,-999.0,79,0.00,,,-99.99,,2013-03-17 03:33:00,
2013-03-16 19:39:00,27.6,21.6,0.00,East,79,7.2,-999.0,78,0.00,,,-99.99,,2013-03-17 03:39:00,
2013-03-16 19:44:00,27.6,21.1,0.00,East,83,12.2,-999.0,76,0.00,,,-99.99,,2013-03-17 03:44:00,
2013-03-16 19:49:00,27.3,20.6,0.00,East,90,19.5,-999.0,75,0.00,,,-99.99,,2013-03-17 03:49:00,
2013-03-16 19:54:00,27.3,21.1,0.00,East,79,17.8,-999.0,77,0.00,,,-99.99,,2013-03-17 03:54:00,
2013-03-16 20:00:00,26.9,20.9,0.00,East,84,14.8,-999.0,77,0.00,,,-99.99,,2013-03-17 04:00:00,
2013-03-16 20:01:00,27.0,20.8,0.00,East,92,20.6,-999.0,77,0.00,,,-99.99,,2013-03-17 04:01:00,
2013-03-16 20:05:00,27.0,20.8,0.00,ENE,78,15.9,-999.0,76,0.00,,,-99.99,,2013-03-17 04:05:00,
2013-03-16 20:06:00,26.8,20.4,0.00,ESE,108,17.5,-999.0,76,0.00,,,-99.99,,2013-03-17 04:06:00,
2013-03-16 20:12:00,26.9,20.4,0.00,East,86,14.3,-999.0,76,0.00,,,-99.99,,2013-03-17 04:12:00,
2013-03-16 20:17:00,26.9,20.0,0.00,East,90,19.6,-999.0,74,0.00,,,-99.99,,2013-03-17 04:17:00,
2013-03-16 20:22:00,27.0,20.1,0.00,East,81,13.6,-999.0,74,0.00,,,-99.99,,2013-03-17 04:22:00,
2013-03-16 20:27:00,26.7,20.1,0.00,East,85,17.9,-999.0,76,0.00,,,-99.99,,2013-03-17 04:27:00,
2013-03-16 20:33:00,27.0,20.0,0.00,ESE,102,12.9,-999.0,74,0.00,,,-99.99,,2013-03-17 04:33:00,
2013-03-16 20:38:00,27.0,19.9,0.00,ESE,104,16.6,-999.0,74,0.00,,,-99.99,,2013-03-17 04:38:00,
2013-03-16 20:44:00,27.0,19.9,0.00,East,83,13.9,-999.0,74,0.00,,,-99.99,,2013-03-17 04:44:00,
2013-03-16 20:49:00,26.9,19.7,0.00,East,87,13.2,-999.0,73,0.00,,,-99.99,,2013-03-17 04:49:00,
2013-03-16 20:54:00,27.1,19.9,0.00,ESE,114,7.9,-999.0,74,0.00,,,-99.99,,2013-03-17 04:54:00,
2013-03-16 21:00:00,27.2,19.8,0.00,ESE,111,12.8,-999.0,73,0.00,,,-99.99,,2013-03-17 05:00:00,
2013-03-16 21:04:00,27.2,19.5,0.00,East,92,19.2,-999.0,72,0.00,,,-99.99,,2013-03-17 05:04:00,
2013-03-16 21:09:00,27.2,20.0,0.00,East,94,16.2,-999.0,73,0.00,,,-99.99,,2013-03-17 05:09:00,
2013-03-16 21:14:00,27.2,20.2,0.00,ENE,75,15.8,-999.0,74,0.00,,,-99.99,,2013-03-17 05:14:00,
2013-03-16 21:19:00,27.1,20.1,0.00,East,90,19.2,-999.0,74,0.00,,,-99.99,,2013-03-17 05:19:00,
2013-03-16 21:24:00,27.1,19.6,0.00,East,90,17.4,-999.0,72,0.00,,,-99.99,,2013-03-17 05:24:00,
2013-03-16 21:29:00,27.0,18.9,0.00,SE,137,20.1,-999.0,71,0.00,,,-99.99,,2013-03-17 05:29:00,
2013-03-16 21:34:00,27.1,19.6,0.00,East,89,18.1,-999.0,72,0.00,,,-99.99,,2013-03-17 05:34:00,
2013-03-16 21:39:00,26.9,19.7,0.00,East,96,10.9,-999.0,73,0.00,,,-99.99,,2013-03-17 05:39:00,
2013-03-16 21:44:00,26.9,19.6,0.00,SE,128,8.1,-999.0,73,0.00,,,-99.99,,2013-03-17 05:44:00,
2013-03-16 21:49:00,26.9,19.1,0.00,SE,145,4.2,-999.0,72,0.00,,,-99.99,,2013-03-17 05:49:00,
2013-03-16 21:54:00,26.7,18.5,0.00,East,95,7.3,-999.0,70,0.00,,,-99.99,,2013-03-17 05:54:00,
2013-03-16 22:00:00,26.4,18.9,0.00,SSE,150,9.6,-999.0,72,0.00,,,-99.99,,2013-03-17 06:00:00,
2013-03-16 22:04:00,26.4,18.7,0.00,SE,132,2.7,-999.0,72,0.00,,,-99.99,,2013-03-17 06:04:00,
2013-03-16 22:09:00,26.2,18.5,0.00,SSE,152,12.4,-999.0,72,0.00,,,-99.99,,2013-03-17 06:09:00,
2013-03-16 22:14:00,26.6,18.5,0.00,ESE,122,4.3,-999.0,71,0.00,,,-99.99,,2013-03-17 06:14:00,
2013-03-16 22:19:00,26.4,18.4,0.00,ESE,106,12.4,-999.0,71,0.00,,,-99.99,,2013-03-17 06:19:00,
2013-03-16 22:24:00,26.1,18.3,0.00,ESE,102,6.9,-999.0,72,0.00,,,-99.99,,2013-03-17 06:24:00,
2013-03-16 22:29:00,26.2,18.0,0.00,ESE,102,5.3,-999.0,70,0.00,,,-99.99,,2013-03-17 06:29:00,
2013-03-16 22:34:00,26.3,18.0,0.00,ESE,111,11.4,-999.0,70,0.00,,,-99.99,,2013-03-17 06:34:00,
2013-03-16 22:39:00,26.2,17.5,0.00,ESE,105,11.9,-999.0,69,0.00,,,-99.99,,2013-03-17 06:39:00,
2013-03-16 22:45:00,25.8,17.3,0.00,ESE,106,10.8,-999.0,69,0.00,,,-99.99,,2013-03-17 06:45:00,
2013-03-16 22:50:00,25.8,17.1,0.00,ESE,109,14.1,-999.0,69,0.00,,,-99.99,,2013-03-17 06:50:00,
2013-03-16 22:55:00,26.2,17.0,0.00,ESE,109,11.5,-999.0,67,0.00,,,-99.99,,2013-03-17 06:55:00,
2013-03-16 23:00:00,26.4,16.9,0.00,East,86,13.0,-999.0,67,0.00,,,-99.99,,2013-03-17 07:00:00,
2013-03-16 23:05:00,25.8,17.1,0.00,SE,125,10.1,-999.0,69,0.00,,,-99.99,,2013-03-17 07:05:00,
2013-03-16 23:10:00,26.3,17.1,0.00,East,89,11.9,-999.0,67,0.00,,,-99.99,,2013-03-17 07:10:00,
2013-03-16 23:15:00,26.2,17.2,0.00,East,97,9.5,-999.0,68,0.00,,,-99.99,,2013-03-17 07:15:00,
2013-03-16 23:20:00,25.8,17.0,0.00,ENE,70,10.6,-999.0,68,0.00,,,-99.99,,2013-03-17 07:20:00,
2013-03-16 23:25:00,26.1,16.4,0.00,ESE,106,10.9,-999.0,66,0.00,,,-99.99,,2013-03-17 07:25:00,
2013-03-16 23:30:00,25.6,16.4,0.00,SSE,155,0.0,-999.0,67,0.00,,,-99.99,,2013-03-17 07:30:00,
2013-03-16 23:35:00,26.0,15.9,0.00,SE,138,2.3,-999.0,65,0.00,,,-99.99,,2013-03-17 07:35:00,
2013-03-16 23:41:00,25.8,16.2,0.00,SE,128,1.7,-999.0,66,0.00,,,-99.99,,2013-03-17 07:41:00,
2013-03-16 23:45:00,25.6,16.2,0.00,SE,124,2.5,-999.0,67,0.00,,,-99.99,,2013-03-17 07:45:00,
2013-03-16 23:50:00,25.5,16.3,0.00,SE,131,4.2,-999.0,67,0.00,,,-99.99,,2013-03-17 07:50:00,
2013-03-16 23:55:00,25.6,15.0,0.00,East,93,5.6,-999.0,63,0.00,,,-99.99,,2013-03-17 07:55:00,